createdAt,value
2017-08-08T00:00:16.803Z,939.2
2017-08-08T00:01:24.890Z,939.2
2017-08-08T00:02:32.981Z,939.2
2017-08-08T00:03:41.180Z,939.2
2017-08-08T00:04:49.278Z,939.2
2017-08-08T00:05:57.243Z,939.2
2017-08-08T00:07:05.330Z,939.2
2017-08-08T00:08:13.420Z,939.2
2017-08-08T00:09:21.505Z,939.3
2017-08-08T00:10:29.659Z,939.2
2017-08-08T00:11:37.685Z,939.2
2017-08-08T00:12:45.771Z,939.2
2017-08-08T00:13:53.858Z,939.2
2017-08-08T00:15:01.948Z,939.2
2017-08-08T00:16:10.091Z,939.2
2017-08-08T00:17:18.120Z,939.2
2017-08-08T00:18:26.218Z,939.2
2017-08-08T00:19:34.308Z,939.2
2017-08-08T00:20:42.450Z,939.3
2017-08-08T00:21:50.601Z,939.3
2017-08-08T00:22:58.570Z,939.3
2017-08-08T00:24:06.660Z,939.3
2017-08-08T00:25:14.756Z,939.3
2017-08-08T00:26:22.840Z,939.3
2017-08-08T00:27:30.984Z,939.3
2017-08-08T00:28:39.017Z,939.3
2017-08-08T00:29:47.104Z,939.2
2017-08-08T00:30:55.288Z,939.2
2017-08-08T00:32:03.280Z,939.2
2017-08-08T00:33:11.421Z,939.1
2017-08-08T00:34:19.456Z,939.2
2017-08-08T00:35:27.543Z,939.1
2017-08-08T00:36:35.749Z,939.1
2017-08-08T00:37:43.719Z,939.1
2017-08-08T00:38:51.863Z,939.1
2017-08-08T00:39:59.893Z,939.1
2017-08-08T00:41:07.982Z,939.1
2017-08-08T00:42:16.070Z,939.1
2017-08-08T00:43:24.160Z,939.0
2017-08-08T00:44:32.301Z,939.0
2017-08-08T00:45:40.337Z,939.0
2017-08-08T00:46:48.425Z,939.0
2017-08-08T00:47:56.507Z,939.0
2017-08-08T00:49:04.614Z,939.0
2017-08-08T00:50:12.874Z,939.0
2017-08-08T00:51:20.781Z,939.0
2017-08-08T00:52:28.927Z,939.0
2017-08-08T00:53:36.958Z,939.0
2017-08-08T00:54:45.045Z,939.0
2017-08-08T00:55:53.192Z,939.0
2017-08-08T00:57:01.222Z,939.0
2017-08-08T00:58:09.310Z,939.0
2017-08-08T00:59:17.395Z,939.1
2017-08-08T01:00:25.485Z,939.1
2017-08-08T01:01:33.690Z,939.1
2017-08-08T01:02:41.658Z,939.1
2017-08-08T01:03:49.746Z,939.1
2017-08-08T01:04:57.839Z,939.1
2017-08-08T01:06:05.931Z,939.1
2017-08-08T01:07:14.065Z,939.1
2017-08-08T01:08:22.184Z,939.1
2017-08-08T01:09:30.292Z,939.1
2017-08-08T01:10:38.269Z,939.1
2017-08-08T01:11:46.359Z,939.0
2017-08-08T01:12:54.567Z,939.0
2017-08-08T01:14:02.539Z,939.0
2017-08-08T01:15:10.633Z,939.0
2017-08-08T01:16:18.710Z,938.9
2017-08-08T01:17:26.799Z,938.9
2017-08-08T01:18:35.005Z,938.9
2017-08-08T01:19:42.971Z,938.9
2017-08-08T01:20:51.061Z,939.0
2017-08-08T01:21:59.148Z,938.9
2017-08-08T01:23:07.346Z,938.9
2017-08-08T01:24:15.378Z,938.9
2017-08-08T01:25:23.410Z,938.9
2017-08-08T01:26:31.501Z,938.9
2017-08-08T01:27:39.696Z,938.9
2017-08-08T01:28:47.674Z,938.9
2017-08-08T01:29:55.881Z,938.9
2017-08-08T01:31:03.846Z,938.9
2017-08-08T01:32:11.946Z,939.0
2017-08-08T01:33:20.034Z,939.0
2017-08-08T01:34:28.121Z,939.0
2017-08-08T01:35:36.266Z,939.0
2017-08-08T01:36:44.317Z,939.0
2017-08-08T01:37:52.384Z,938.9
2017-08-08T01:39:00.470Z,939.0
2017-08-08T01:40:08.681Z,939.0
2017-08-08T01:41:16.752Z,939.0
2017-08-08T01:42:24.736Z,938.9
2017-08-08T01:43:32.824Z,938.9
2017-08-08T01:44:40.921Z,938.9
2017-08-08T01:45:49.007Z,938.9
2017-08-08T01:46:57.151Z,938.9
2017-08-08T01:48:05.181Z,938.8
2017-08-08T01:49:13.272Z,938.8
2017-08-08T01:50:21.534Z,938.9
2017-08-08T01:51:29.452Z,938.9
2017-08-08T01:52:37.595Z,938.9
2017-08-08T01:53:45.621Z,938.9
2017-08-08T01:54:53.713Z,938.9
2017-08-08T01:56:01.918Z,938.9
2017-08-08T01:57:09.883Z,938.9
2017-08-08T01:58:18.035Z,939.0
2017-08-08T01:59:26.243Z,939.0
2017-08-08T02:00:34.173Z,939.0
2017-08-08T02:01:42.238Z,939.0
2017-08-08T02:02:50.325Z,939.0
2017-08-08T02:03:58.473Z,939.0
2017-08-08T02:05:06.645Z,939.0
2017-08-08T02:06:14.597Z,938.9
2017-08-08T02:07:22.682Z,938.9
2017-08-08T02:08:30.859Z,938.9
2017-08-08T02:09:38.916Z,938.9
2017-08-08T02:10:46.947Z,938.9
2017-08-08T02:11:55.156Z,938.9
2017-08-08T02:13:03.142Z,938.9
2017-08-08T02:14:11.248Z,938.9
2017-08-08T02:15:19.363Z,938.8
2017-08-08T02:16:27.395Z,938.8
2017-08-08T02:17:35.483Z,938.8
2017-08-08T02:18:43.644Z,938.8
2017-08-08T02:19:51.657Z,938.8
2017-08-08T02:20:59.799Z,938.8
2017-08-08T02:22:07.830Z,938.8
2017-08-08T02:23:15.921Z,938.8
2017-08-08T02:24:24.010Z,938.7
2017-08-08T02:25:32.098Z,938.7
2017-08-08T02:26:40.304Z,938.7
2017-08-08T02:27:48.527Z,938.7
2017-08-08T02:28:56.364Z,938.6
2017-08-08T02:30:04.447Z,938.6
2017-08-08T02:31:12.539Z,938.6
2017-08-08T02:32:20.831Z,938.6
2017-08-08T02:33:28.716Z,938.6
2017-08-08T02:34:36.799Z,938.6
2017-08-08T02:35:44.889Z,938.5
2017-08-08T02:36:52.975Z,938.5
2017-08-08T02:38:01.121Z,938.5
2017-08-08T02:39:09.148Z,938.5
2017-08-08T02:40:17.238Z,938.5
2017-08-08T02:41:25.324Z,938.5
2017-08-08T02:42:33.415Z,938.4
2017-08-08T02:43:41.621Z,938.4
2017-08-08T02:44:49.589Z,938.4
2017-08-08T02:45:57.676Z,938.4
2017-08-08T02:47:05.795Z,938.4
2017-08-08T02:48:13.851Z,938.4
2017-08-08T02:49:21.993Z,938.3
2017-08-08T02:50:30.027Z,938.2
2017-08-08T02:51:38.113Z,938.2
2017-08-08T02:52:46.198Z,938.2
2017-08-08T02:53:54.285Z,938.2
2017-08-08T02:55:02.618Z,938.2
2017-08-08T02:56:10.573Z,938.2
2017-08-08T02:57:18.619Z,938.1
2017-08-08T02:58:26.637Z,938.1
2017-08-08T02:59:35.028Z,938.1
2017-08-08T03:00:43.000Z,938.1
2017-08-08T03:01:50.896Z,938.1
2017-08-08T03:02:58.986Z,938.1
2017-08-08T03:04:07.073Z,938.0
2017-08-08T03:05:15.317Z,938.0
2017-08-08T03:06:23.308Z,938.0
2017-08-08T03:07:31.340Z,938.0
2017-08-08T03:08:39.426Z,938.0
2017-08-08T03:09:47.682Z,938.0
2017-08-08T03:10:55.602Z,938.0
2017-08-08T03:12:03.807Z,938.0
2017-08-08T03:13:11.776Z,938.0
2017-08-08T03:14:19.864Z,937.9
2017-08-08T03:15:28.072Z,937.9
2017-08-08T03:16:36.038Z,937.9
2017-08-08T03:17:44.184Z,937.9
2017-08-08T03:18:52.216Z,937.9
2017-08-08T03:20:00.300Z,937.9
2017-08-08T03:21:08.392Z,937.9
2017-08-08T03:22:16.478Z,937.9
2017-08-08T03:23:24.685Z,937.9
2017-08-08T03:24:32.742Z,937.9
2017-08-08T03:25:40.739Z,938.0
2017-08-08T03:26:48.826Z,938.0
2017-08-08T03:27:56.917Z,938.0
2017-08-08T03:29:05.123Z,938.0
2017-08-08T03:30:13.097Z,937.9
2017-08-08T03:31:21.236Z,937.9
2017-08-08T03:32:29.266Z,937.9
2017-08-08T03:33:37.445Z,937.9
2017-08-08T03:34:45.564Z,938.0
2017-08-08T03:35:53.528Z,937.9
2017-08-08T03:37:01.618Z,937.9
2017-08-08T03:38:09.704Z,937.8
2017-08-08T03:39:17.802Z,937.9
2017-08-08T03:40:26.008Z,937.8
2017-08-08T03:41:33.978Z,937.8
2017-08-08T03:42:42.072Z,937.8
2017-08-08T03:43:50.156Z,937.8
2017-08-08T03:44:58.244Z,937.8
2017-08-08T03:46:06.386Z,937.8
2017-08-08T03:47:14.538Z,937.7
2017-08-08T03:48:22.681Z,937.7
2017-08-08T03:49:30.593Z,937.7
2017-08-08T03:50:38.683Z,937.7
2017-08-08T03:51:46.897Z,937.6
2017-08-08T03:52:54.865Z,937.7
2017-08-08T03:54:02.953Z,937.6
2017-08-08T03:55:11.049Z,937.6
2017-08-08T03:56:19.129Z,937.6
2017-08-08T03:57:27.289Z,937.6
2017-08-08T03:58:35.304Z,937.6
2017-08-08T03:59:43.391Z,937.6
2017-08-08T04:00:51.478Z,937.7
2017-08-08T04:01:59.589Z,937.6
2017-08-08T04:03:07.774Z,937.6
2017-08-08T04:04:15.740Z,937.6
2017-08-08T04:05:23.828Z,937.6
2017-08-08T04:06:31.955Z,937.6
2017-08-08T04:07:40.010Z,937.6
2017-08-08T04:08:48.214Z,937.6
2017-08-08T04:09:56.178Z,937.7
2017-08-08T04:11:04.268Z,937.6
2017-08-08T04:12:12.355Z,937.6
2017-08-08T04:13:20.446Z,937.6
2017-08-08T04:14:28.585Z,937.6
2017-08-08T04:15:36.614Z,937.6
2017-08-08T04:16:44.705Z,937.5
2017-08-08T04:17:52.799Z,937.5
2017-08-08T04:19:01.006Z,937.5
2017-08-08T04:20:09.021Z,937.4
2017-08-08T04:21:17.056Z,937.4
2017-08-08T04:22:25.143Z,937.4
2017-08-08T04:23:33.233Z,937.4
2017-08-08T04:24:41.314Z,937.4
2017-08-08T04:25:49.469Z,937.4
2017-08-08T04:26:57.513Z,937.4
2017-08-08T04:28:05.677Z,937.4
2017-08-08T04:29:15.201Z,937.4
2017-08-08T04:30:22.995Z,937.4
2017-08-08T04:31:32.829Z,937.3
2017-08-08T04:32:37.940Z,937.3
2017-08-08T04:33:46.035Z,937.3
2017-08-08T04:34:54.172Z,937.3
2017-08-08T04:36:02.206Z,937.3
2017-08-08T04:37:10.413Z,937.3
2017-08-08T04:38:18.380Z,937.3
2017-08-08T04:39:26.468Z,937.3
2017-08-08T04:40:34.554Z,937.2
2017-08-08T04:41:42.639Z,937.2
2017-08-08T04:42:50.784Z,937.2
2017-08-08T04:43:58.883Z,937.2
2017-08-08T04:45:06.906Z,937.2
2017-08-08T04:46:14.993Z,937.3
2017-08-08T04:47:23.183Z,937.3
2017-08-08T04:48:31.488Z,937.3
2017-08-08T04:49:39.255Z,937.3
2017-08-08T04:50:47.398Z,937.3
2017-08-08T04:51:55.426Z,937.3
2017-08-08T04:53:03.682Z,937.3
2017-08-08T04:54:11.720Z,937.3
2017-08-08T04:55:19.741Z,937.3
2017-08-08T04:56:28.088Z,937.3
2017-08-08T04:57:35.868Z,937.2
2017-08-08T04:58:44.237Z,937.2
2017-08-08T04:59:53.624Z,937.2
2017-08-08T05:01:00.127Z,937.2
2017-08-08T05:02:08.210Z,937.2
2017-08-08T05:03:16.298Z,937.2
2017-08-08T05:04:25.875Z,937.2
2017-08-08T05:05:32.596Z,937.2
2017-08-08T05:06:40.775Z,937.2
2017-08-08T05:07:48.734Z,937.2
2017-08-08T05:08:56.737Z,937.3
2017-08-08T05:10:04.823Z,937.3
2017-08-08T05:11:12.967Z,937.3
2017-08-08T05:12:20.997Z,937.3
2017-08-08T05:13:29.085Z,937.2
2017-08-08T05:14:37.171Z,937.2
2017-08-08T05:15:45.263Z,937.2
2017-08-08T05:16:53.492Z,937.2
2017-08-08T05:18:01.433Z,937.2
2017-08-08T05:19:09.525Z,937.2
2017-08-08T05:20:17.635Z,937.2
2017-08-08T05:21:25.787Z,937.2
2017-08-08T05:22:33.839Z,937.2
2017-08-08T05:23:41.870Z,937.2
2017-08-08T05:24:49.961Z,937.2
2017-08-08T05:25:58.191Z,937.2
2017-08-08T05:27:06.133Z,937.2
2017-08-08T05:28:14.341Z,937.1
2017-08-08T05:29:22.307Z,937.1
2017-08-08T05:30:30.526Z,937.1
2017-08-08T05:31:38.482Z,937.0
2017-08-08T05:32:46.578Z,937.0
2017-08-08T05:33:54.718Z,937.1
2017-08-08T05:35:02.799Z,937.1
2017-08-08T05:36:10.837Z,937.1
2017-08-08T05:37:18.925Z,937.1
2017-08-08T05:38:27.132Z,937.2
2017-08-08T05:39:35.291Z,937.2
2017-08-08T05:40:43.186Z,937.2
2017-08-08T05:41:51.275Z,937.2
2017-08-08T05:42:59.362Z,937.2
2017-08-08T05:44:07.631Z,937.2
2017-08-08T05:45:15.689Z,937.3
2017-08-08T05:46:23.633Z,937.3
2017-08-08T05:47:31.737Z,937.3
2017-08-08T05:48:39.826Z,937.3
2017-08-08T05:49:47.918Z,937.2
2017-08-08T05:50:56.064Z,937.2
2017-08-08T05:52:04.092Z,937.2
2017-08-08T05:53:12.183Z,937.2
2017-08-08T05:54:20.407Z,937.2
2017-08-08T05:55:28.357Z,937.2
2017-08-08T05:56:36.503Z,937.2
2017-08-08T05:57:44.531Z,937.2
2017-08-08T05:58:52.682Z,937.2
2017-08-08T06:00:00.709Z,937.2
2017-08-08T06:01:08.795Z,937.2
2017-08-08T06:02:17.000Z,937.2
2017-08-08T06:03:25.157Z,937.2
2017-08-08T06:04:33.058Z,937.2
2017-08-08T06:05:41.146Z,937.2
2017-08-08T06:06:49.232Z,937.1
2017-08-08T06:07:57.376Z,937.1
2017-08-08T06:09:05.483Z,937.1
2017-08-08T06:10:13.614Z,937.1
2017-08-08T06:11:21.580Z,937.1
2017-08-08T06:12:29.769Z,937.0
2017-08-08T06:13:37.813Z,936.9
2017-08-08T06:14:45.841Z,936.9
2017-08-08T06:15:53.942Z,936.9
2017-08-08T06:17:02.161Z,936.9
2017-08-08T06:18:10.108Z,936.9
2017-08-08T06:19:18.320Z,936.9
2017-08-08T06:20:26.282Z,936.9
2017-08-08T06:21:34.370Z,936.9
2017-08-08T06:22:42.456Z,936.9
2017-08-08T06:23:50.543Z,936.9
2017-08-08T06:24:58.701Z,936.9
2017-08-08T06:26:07.007Z,936.9
2017-08-08T06:27:14.830Z,936.9
2017-08-08T06:28:22.907Z,936.9
2017-08-08T06:29:30.996Z,936.9
2017-08-08T06:30:39.202Z,936.9
2017-08-08T06:31:47.169Z,936.9
2017-08-08T06:32:55.255Z,936.8
2017-08-08T06:34:03.345Z,936.9
2017-08-08T06:35:11.433Z,936.9
2017-08-08T06:36:19.706Z,936.8
2017-08-08T06:37:27.606Z,936.9
2017-08-08T06:38:35.694Z,936.9
2017-08-08T06:39:43.779Z,936.9
2017-08-08T06:40:51.917Z,936.9
2017-08-08T06:42:00.077Z,936.9
2017-08-08T06:43:08.044Z,936.9
2017-08-08T06:44:16.132Z,936.9
2017-08-08T06:45:24.219Z,936.9
2017-08-08T06:46:32.323Z,936.9
2017-08-08T06:47:40.452Z,936.9
2017-08-08T06:48:48.483Z,936.9
2017-08-08T06:49:56.567Z,936.9
2017-08-08T06:51:04.660Z,936.9
2017-08-08T06:52:12.746Z,936.9
2017-08-08T06:53:20.889Z,936.9
2017-08-08T06:54:28.919Z,937.0
2017-08-08T06:55:37.149Z,937.0
2017-08-08T06:56:45.095Z,937.1
2017-08-08T06:57:53.237Z,937.2
2017-08-08T06:59:01.392Z,937.3
2017-08-08T07:00:09.357Z,937.4
2017-08-08T07:01:17.442Z,937.5
2017-08-08T07:02:25.531Z,937.5
2017-08-08T07:03:33.618Z,937.5
2017-08-08T07:04:41.827Z,937.5
2017-08-08T07:05:49.797Z,937.6
2017-08-08T07:06:57.881Z,937.7
2017-08-08T07:08:05.968Z,937.9
2017-08-08T07:09:14.134Z,938.0
2017-08-08T07:10:22.198Z,938.0
2017-08-08T07:11:30.234Z,938.1
2017-08-08T07:12:38.319Z,938.2
2017-08-08T07:13:46.723Z,938.3
2017-08-08T07:14:54.493Z,938.4
2017-08-08T07:16:02.640Z,938.3
2017-08-08T07:17:10.666Z,938.2
2017-08-08T07:18:18.754Z,938.2
2017-08-08T07:19:26.838Z,938.2
2017-08-08T07:20:34.937Z,938.3
2017-08-08T07:21:43.132Z,938.3
2017-08-08T07:22:51.105Z,938.2
2017-08-08T07:23:59.319Z,938.1
2017-08-08T07:25:07.301Z,938.0
2017-08-08T07:26:15.370Z,938.0
2017-08-08T07:27:23.516Z,938.0
2017-08-08T07:28:31.564Z,938.0
2017-08-08T07:29:39.754Z,938.1
2017-08-08T07:30:47.721Z,938.0
2017-08-08T07:31:55.808Z,938.0
2017-08-08T07:33:03.952Z,937.9
2017-08-08T07:34:11.985Z,937.9
2017-08-08T07:35:20.071Z,937.9
2017-08-08T07:36:28.155Z,937.9
2017-08-08T07:37:36.241Z,937.9
2017-08-08T07:38:44.452Z,937.9
2017-08-08T07:39:52.421Z,937.9
2017-08-08T07:41:00.523Z,937.9
2017-08-08T07:42:08.618Z,937.9
2017-08-08T07:43:16.707Z,937.9
2017-08-08T07:44:24.860Z,937.9
2017-08-08T07:45:33.010Z,937.9
2017-08-08T07:46:40.978Z,937.9
2017-08-08T07:47:49.063Z,937.9
2017-08-08T07:48:57.163Z,937.8
2017-08-08T07:50:05.306Z,937.7
2017-08-08T07:51:13.340Z,937.6
2017-08-08T07:52:21.429Z,937.5
2017-08-08T07:53:29.524Z,937.5
2017-08-08T07:54:37.609Z,937.4
2017-08-08T07:55:45.940Z,937.4
2017-08-08T07:56:53.783Z,937.3
2017-08-08T07:58:01.872Z,937.4
2017-08-08T07:59:09.960Z,937.4
2017-08-08T08:00:18.053Z,937.4
2017-08-08T08:01:26.262Z,937.4
2017-08-08T08:02:34.223Z,937.4
2017-08-08T08:03:42.312Z,937.3
2017-08-08T08:04:50.407Z,937.3
2017-08-08T08:05:58.566Z,937.2
2017-08-08T08:07:06.641Z,937.3
2017-08-08T08:08:14.670Z,937.3
2017-08-08T08:09:22.762Z,937.3
2017-08-08T08:10:30.932Z,937.3
2017-08-08T08:11:38.932Z,937.3
2017-08-08T08:12:47.077Z,937.4
2017-08-08T08:13:55.110Z,937.3
2017-08-08T08:15:03.195Z,937.4
2017-08-08T08:16:11.281Z,937.4
2017-08-08T08:17:19.428Z,937.4
2017-08-08T08:18:27.581Z,937.3
2017-08-08T08:19:35.546Z,937.4
2017-08-08T08:20:43.640Z,937.4
2017-08-08T08:21:51.721Z,937.4
2017-08-08T08:22:59.822Z,937.4
2017-08-08T08:24:07.978Z,937.4
2017-08-08T08:25:15.995Z,937.4
2017-08-08T08:26:24.084Z,937.4
2017-08-08T08:27:32.174Z,937.4
2017-08-08T08:28:40.293Z,937.4
2017-08-08T08:29:48.463Z,937.4
2017-08-08T08:30:56.431Z,937.4
2017-08-08T08:32:04.520Z,937.4
2017-08-08T08:33:12.664Z,937.4
2017-08-08T08:34:20.693Z,937.5
2017-08-08T08:35:28.903Z,937.4
2017-08-08T08:36:36.872Z,937.5
2017-08-08T08:37:44.960Z,937.5
2017-08-08T08:38:53.043Z,937.5
2017-08-08T08:40:01.130Z,937.6
2017-08-08T08:41:09.280Z,937.7
2017-08-08T08:42:17.313Z,937.7
2017-08-08T08:43:25.467Z,937.7
2017-08-08T08:44:33.482Z,937.7
2017-08-08T08:45:41.570Z,937.8
2017-08-08T08:46:49.711Z,937.8
2017-08-08T08:47:57.744Z,937.8
2017-08-08T08:49:05.952Z,937.8
2017-08-08T08:50:13.920Z,937.9
2017-08-08T08:51:22.007Z,937.9
2017-08-08T08:52:30.342Z,937.9
2017-08-08T08:53:38.181Z,937.9
2017-08-08T08:54:46.270Z,937.9
2017-08-08T08:55:54.356Z,937.9
2017-08-08T08:57:02.523Z,937.9
2017-08-08T08:58:10.651Z,938.0
2017-08-08T08:59:18.619Z,938.2
2017-08-08T09:00:26.705Z,938.2
2017-08-08T09:01:34.912Z,938.3
2017-08-08T09:02:42.879Z,938.3
2017-08-08T09:03:51.090Z,938.3
2017-08-08T09:04:59.113Z,938.3
2017-08-08T09:06:07.282Z,938.3
2017-08-08T09:07:15.229Z,938.4
2017-08-08T09:08:23.336Z,938.4
2017-08-08T09:09:31.524Z,938.5
2017-08-08T09:10:39.497Z,938.5
2017-08-08T09:11:47.689Z,938.5
2017-08-08T09:12:55.672Z,938.5
2017-08-08T09:14:03.761Z,938.5
2017-08-08T09:15:12.049Z,938.4
2017-08-08T09:16:19.957Z,938.5
2017-08-08T09:17:28.027Z,938.4
2017-08-08T09:18:36.110Z,938.4
2017-08-08T09:19:44.197Z,938.3
2017-08-08T09:20:52.517Z,938.3
2017-08-08T09:22:00.373Z,938.3
2017-08-08T09:23:08.459Z,938.3
2017-08-08T09:24:16.547Z,938.4
2017-08-08T09:25:24.756Z,938.3
2017-08-08T09:26:32.842Z,938.4
2017-08-08T09:27:40.809Z,938.5
2017-08-08T09:28:48.894Z,938.5
2017-08-08T09:29:56.984Z,938.5
2017-08-08T09:31:05.069Z,938.5
2017-08-08T09:32:13.216Z,938.4
2017-08-08T09:33:21.246Z,938.5
2017-08-08T09:34:29.484Z,938.5
2017-08-08T09:35:37.421Z,938.5
2017-08-08T09:36:45.629Z,938.5
2017-08-08T09:37:53.649Z,938.5
2017-08-08T09:39:01.856Z,938.5
2017-08-08T09:40:09.769Z,938.5
2017-08-08T09:41:17.855Z,938.5
2017-08-08T09:42:25.944Z,938.6
2017-08-08T09:43:34.338Z,938.7
2017-08-08T09:44:42.121Z,938.7
2017-08-08T09:45:50.208Z,938.7
2017-08-08T09:46:58.293Z,938.8
2017-08-08T09:48:06.381Z,938.8
2017-08-08T09:49:14.578Z,938.9
2017-08-08T09:50:22.557Z,938.9
2017-08-08T09:51:30.645Z,938.9
2017-08-08T09:52:38.852Z,938.9
2017-08-08T09:53:46.818Z,938.9
2017-08-08T09:54:54.963Z,938.8
2017-08-08T09:56:02.993Z,938.8
2017-08-08T09:57:11.079Z,938.8
2017-08-08T09:58:19.177Z,938.8
2017-08-08T09:59:27.258Z,938.8
2017-08-08T10:00:35.464Z,938.9
2017-08-08T10:01:43.429Z,939.0
2017-08-08T10:02:51.642Z,939.1
2017-08-08T10:03:59.607Z,939.1
2017-08-08T10:05:07.693Z,939.0
2017-08-08T10:06:15.851Z,938.9
2017-08-08T10:07:23.867Z,938.8
2017-08-08T10:08:32.075Z,938.8
2017-08-08T10:09:40.042Z,938.7
2017-08-08T10:10:48.129Z,938.7
2017-08-08T10:11:56.276Z,938.6
2017-08-08T10:13:04.305Z,938.6
2017-08-08T10:14:12.393Z,938.6
2017-08-08T10:15:20.480Z,938.5
2017-08-08T10:16:28.568Z,938.5
2017-08-08T10:17:36.776Z,938.4
2017-08-08T10:18:44.741Z,938.4
2017-08-08T10:19:52.829Z,938.3
2017-08-08T10:21:00.924Z,938.2
2017-08-08T10:22:09.008Z,938.2
2017-08-08T10:23:17.155Z,938.2
2017-08-08T10:24:25.304Z,938.1
2017-08-08T10:25:33.271Z,937.9
2017-08-08T10:26:41.373Z,937.9
2017-08-08T10:27:49.445Z,937.8
2017-08-08T10:28:57.587Z,937.8
2017-08-08T10:30:05.618Z,937.7
2017-08-08T10:31:13.710Z,937.6
2017-08-08T10:32:21.795Z,937.5
2017-08-08T10:33:29.884Z,937.5
2017-08-08T10:34:38.095Z,937.4
2017-08-08T10:35:46.060Z,937.4
2017-08-08T10:36:54.148Z,937.5
2017-08-08T10:38:02.234Z,937.4
2017-08-08T10:39:10.320Z,937.4
2017-08-08T10:40:18.536Z,937.5
2017-08-08T10:41:26.502Z,937.5
2017-08-08T10:42:34.591Z,937.6
2017-08-08T10:43:42.680Z,937.7
2017-08-08T10:44:50.883Z,937.8
2017-08-08T10:45:58.911Z,937.9
2017-08-08T10:47:06.941Z,937.9
2017-08-08T10:48:15.030Z,937.9
2017-08-08T10:49:23.116Z,937.9
2017-08-08T10:50:31.277Z,937.9
2017-08-08T10:51:39.352Z,938.0
2017-08-08T10:52:47.382Z,938.1
2017-08-08T10:53:55.469Z,938.1
2017-08-08T10:55:03.624Z,938.1
2017-08-08T10:56:11.767Z,938.2
2017-08-08T10:57:19.794Z,938.3
2017-08-08T10:58:27.819Z,938.4
2017-08-08T10:59:35.907Z,938.5
2017-08-08T11:00:43.995Z,938.6
2017-08-08T11:01:52.087Z,938.7
2017-08-08T11:03:00.227Z,938.8
2017-08-08T11:04:08.359Z,938.9
2017-08-08T11:05:16.346Z,938.9
2017-08-08T11:06:24.438Z,938.9
2017-08-08T11:07:32.542Z,939.0
2017-08-08T11:08:40.715Z,939.1
2017-08-08T11:09:48.696Z,939.2
2017-08-08T11:10:56.784Z,939.2
2017-08-08T11:12:04.994Z,939.3
2017-08-08T11:13:12.960Z,939.3
2017-08-08T11:14:21.169Z,939.3
2017-08-08T11:15:29.160Z,939.4
2017-08-08T11:16:37.256Z,939.4
2017-08-08T11:17:45.363Z,939.4
2017-08-08T11:18:53.426Z,939.4
2017-08-08T11:20:01.633Z,939.4
2017-08-08T11:21:09.598Z,939.4
2017-08-08T11:22:17.848Z,939.4
2017-08-08T11:23:25.776Z,939.4
2017-08-08T11:24:33.876Z,939.5
2017-08-08T11:25:42.033Z,939.5
2017-08-08T11:26:50.066Z,939.5
2017-08-08T11:27:58.371Z,939.5
2017-08-08T11:29:06.249Z,939.5
2017-08-08T11:30:14.334Z,939.5
2017-08-08T11:31:22.479Z,939.5
2017-08-08T11:32:30.612Z,939.6
2017-08-08T11:33:38.598Z,939.6
2017-08-08T11:34:46.684Z,939.6
2017-08-08T11:35:54.839Z,939.6
2017-08-08T11:37:02.980Z,939.6
2017-08-08T11:38:10.948Z,939.6
2017-08-08T11:39:19.037Z,939.6
2017-08-08T11:40:27.124Z,939.5
2017-08-08T11:41:35.243Z,939.4
2017-08-08T11:42:43.359Z,939.3
2017-08-08T11:43:51.509Z,939.4
2017-08-08T11:44:59.483Z,939.5
2017-08-08T11:46:07.608Z,939.5
2017-08-08T11:47:15.656Z,939.6
2017-08-08T11:48:23.862Z,939.6
2017-08-08T11:49:31.830Z,939.5
2017-08-08T11:50:39.981Z,939.6
2017-08-08T11:51:48.009Z,939.6
2017-08-08T11:52:56.096Z,939.6
2017-08-08T11:54:04.249Z,939.6
2017-08-08T11:55:12.367Z,939.5
2017-08-08T11:56:20.366Z,939.6
2017-08-08T11:57:28.460Z,939.5
2017-08-08T11:58:36.550Z,939.5
2017-08-08T11:59:44.852Z,939.4
2017-08-08T12:00:52.721Z,939.4
2017-08-08T12:02:00.805Z,939.4
2017-08-08T12:03:08.899Z,939.5
2017-08-08T12:04:16.985Z,939.5
2017-08-08T12:05:25.130Z,939.5
2017-08-08T12:06:33.160Z,939.5
2017-08-08T12:07:41.253Z,939.5
2017-08-08T12:08:49.338Z,939.5
2017-08-08T12:09:57.434Z,939.4
2017-08-08T12:11:05.631Z,939.4
2017-08-08T12:12:13.597Z,939.5
2017-08-08T12:13:21.687Z,939.5
2017-08-08T12:14:29.952Z,939.5
2017-08-08T12:15:37.946Z,939.6
2017-08-08T12:16:46.070Z,939.5
2017-08-08T12:17:54.182Z,939.6
2017-08-08T12:19:02.210Z,939.5
2017-08-08T12:20:10.223Z,939.5
2017-08-08T12:21:18.312Z,939.5
2017-08-08T12:22:26.455Z,939.6
2017-08-08T12:23:34.560Z,939.6
2017-08-08T12:24:42.578Z,939.5
2017-08-08T12:25:50.663Z,939.5
2017-08-08T12:26:58.753Z,939.5
2017-08-08T12:28:06.994Z,939.5
2017-08-08T12:29:14.927Z,939.6
2017-08-08T12:30:23.015Z,939.5
2017-08-08T12:31:31.225Z,939.6
2017-08-08T12:32:39.195Z,939.5
2017-08-08T12:33:47.397Z,939.5
2017-08-08T12:34:55.365Z,939.5
2017-08-08T12:36:03.454Z,939.6
2017-08-08T12:37:11.665Z,939.6
2017-08-08T12:38:19.811Z,939.7
2017-08-08T12:39:27.838Z,939.6
2017-08-08T12:40:35.803Z,939.7
2017-08-08T12:41:43.967Z,939.7
2017-08-08T12:42:51.978Z,939.7
2017-08-08T12:44:00.226Z,939.7
2017-08-08T12:45:08.274Z,939.7
2017-08-08T12:46:16.242Z,939.8
2017-08-08T12:47:24.389Z,939.8
2017-08-08T12:48:32.417Z,939.8
2017-08-08T12:49:40.504Z,939.8
2017-08-08T12:50:48.711Z,939.8
2017-08-08T12:51:56.735Z,939.9
2017-08-08T12:53:04.768Z,939.9
2017-08-08T12:54:12.855Z,939.9
2017-08-08T12:55:20.941Z,939.9
2017-08-08T12:56:29.087Z,940.0
2017-08-08T12:57:37.116Z,940.0
2017-08-08T12:58:45.206Z,940.0
2017-08-08T12:59:53.297Z,940.0
2017-08-08T13:01:01.381Z,940.1
2017-08-08T13:02:09.586Z,940.1
2017-08-08T13:03:17.611Z,940.1
2017-08-08T13:04:25.643Z,940.2
2017-08-08T13:05:33.906Z,940.2
2017-08-08T13:06:41.821Z,940.2
2017-08-08T13:07:49.963Z,940.3
2017-08-08T13:08:58.013Z,940.3
2017-08-08T13:10:06.286Z,940.3
2017-08-08T13:11:14.200Z,940.2
2017-08-08T13:12:22.454Z,940.2
2017-08-08T13:13:30.428Z,940.2
2017-08-08T13:14:38.634Z,940.2
2017-08-08T13:15:46.548Z,940.3
2017-08-08T13:16:54.636Z,940.3
2017-08-08T13:18:02.730Z,940.4
2017-08-08T13:19:10.932Z,940.3
2017-08-08T13:20:18.900Z,940.4
2017-08-08T13:21:26.988Z,940.4
2017-08-08T13:22:35.074Z,940.4
2017-08-08T13:23:43.167Z,940.3
2017-08-08T13:24:51.368Z,940.2
2017-08-08T13:25:59.336Z,940.2
2017-08-08T13:27:07.425Z,940.2
2017-08-08T13:28:15.509Z,940.2
2017-08-08T13:29:23.602Z,940.0
2017-08-08T13:30:31.745Z,940.0
2017-08-08T13:31:39.773Z,940.0
2017-08-08T13:32:47.863Z,940.0
2017-08-08T13:33:55.949Z,940.0
2017-08-08T13:35:04.158Z,939.9
2017-08-08T13:36:12.179Z,940.0
2017-08-08T13:37:20.212Z,939.9
2017-08-08T13:38:28.300Z,939.8
2017-08-08T13:39:36.386Z,939.8
2017-08-08T13:40:44.476Z,939.7
2017-08-08T13:41:52.623Z,939.7
2017-08-08T13:43:00.649Z,939.8
2017-08-08T13:44:08.736Z,939.9
2017-08-08T13:45:16.828Z,940.0
2017-08-08T13:46:24.911Z,940.2
2017-08-08T13:47:33.077Z,940.4
2017-08-08T13:48:41.086Z,940.5
2017-08-08T13:49:49.181Z,940.6
2017-08-08T13:50:57.383Z,940.6
2017-08-08T13:52:05.350Z,940.6
2017-08-08T13:53:13.494Z,940.6
2017-08-08T13:54:21.522Z,940.6
2017-08-08T13:55:29.628Z,940.6
2017-08-08T13:56:37.716Z,940.6
2017-08-08T13:57:45.804Z,940.6
2017-08-08T13:58:54.009Z,940.6
2017-08-08T14:00:01.977Z,940.6
2017-08-08T14:01:10.066Z,940.7
2017-08-08T14:02:18.154Z,940.7
2017-08-08T14:03:26.246Z,940.6
2017-08-08T14:04:34.385Z,940.6
2017-08-08T14:05:42.417Z,940.5
2017-08-08T14:06:50.593Z,940.5
2017-08-08T14:07:58.588Z,940.6
2017-08-08T14:09:06.676Z,940.6
2017-08-08T14:10:14.820Z,940.6
2017-08-08T14:11:22.850Z,940.6
2017-08-08T14:12:30.942Z,940.5
2017-08-08T14:13:39.028Z,940.5
2017-08-08T14:14:47.116Z,940.4
2017-08-08T14:15:55.491Z,940.3
2017-08-08T14:17:03.316Z,940.3
2017-08-08T14:18:11.376Z,940.3
2017-08-08T14:19:19.467Z,940.3
2017-08-08T14:20:27.553Z,940.3
2017-08-08T14:21:35.695Z,940.2
2017-08-08T14:22:43.789Z,940.2
2017-08-08T14:23:51.815Z,940.1
2017-08-08T14:24:59.906Z,940.0
2017-08-08T14:26:07.990Z,940.0
2017-08-08T14:27:16.198Z,939.9
2017-08-08T14:28:24.163Z,940.0
2017-08-08T14:29:32.278Z,939.9
2017-08-08T14:30:40.339Z,939.9
2017-08-08T14:31:48.426Z,939.9
2017-08-08T14:32:56.571Z,939.9
2017-08-08T14:34:04.604Z,939.9
2017-08-08T14:35:12.689Z,939.9
2017-08-08T14:36:20.776Z,939.8